Time;durP1;ratioP1;P1;durP2;ratioP2;P2;SDS_P1;SDS_P2;PMS_P1;PMS_P2;Temp;Humidity;BMP_temperature;BMP_pressure;BME280_temperature;BME280_humidity;BME280_pressure;Samples;Min_cycle;Max_cycle;Signal;HPM_P1;HPM_P2
2022/12/13 00:01:44;;;;;;;26.85;14.05;;;;;;;-1.10;71.44;99460.59;5100303;28;20508;-83
2022/12/13 00:04:09;;;;;;;24.92;15.90;;;;;;;-1.20;71.29;99458.25;5100107;28;20059;-83
2022/12/13 00:06:35;;;;;;;31.77;16.08;;;;;;;-1.00;71.30;99454.09;5099293;28;20058;-84
2022/12/13 00:09:02;;;;;;;33.65;18.50;;;;;;;-0.91;70.51;99463.59;5097230;28;20479;-83
2022/12/13 00:11:28;;;;;;;25.65;16.20;;;;;;;-0.99;70.82;99461.06;5099956;28;20040;-83
2022/12/13 00:13:53;;;;;;;23.02;15.02;;;;;;;-0.87;70.42;99453.31;5099247;28;20077;-82
2022/12/13 00:16:23;;;;;;;28.50;15.80;;;;;;;-0.85;70.66;99451.28;5099269;28;20028;-84
2022/12/13 00:18:54;;;;;;;25.67;16.05;;;;;;;-1.06;70.46;99445.78;5099184;28;20149;-83
2022/12/13 00:21:21;;;;;;;29.20;15.85;;;;;;;-1.12;70.73;99449.25;5099167;28;20511;-83
2022/12/13 00:23:46;;;;;;;25.35;13.95;;;;;;;-1.09;70.59;99451.56;5097401;28;20024;-83
2022/12/13 00:26:20;;;;;;;24.35;15.35;;;;;;;-1.09;70.28;99445.38;5098450;28;20042;-84
2022/12/13 00:28:48;;;;;;;25.55;15.35;;;;;;;-1.22;70.85;99446.13;5098414;28;20022;-83
2022/12/13 00:31:14;;;;;;;26.45;14.52;;;;;;;-1.26;70.79;99439.50;5098361;28;20032;-83
2022/12/13 00:33:39;;;;;;;23.10;15.30;;;;;;;-1.28;71.27;99436.19;5099749;28;20028;-84
2022/12/13 00:36:06;;;;;;;30.35;14.32;;;;;;;-1.32;71.12;99438.41;5099401;28;20483;-83
2022/12/13 00:38:32;;;;;;;27.00;15.73;;;;;;;-1.40;70.50;99439.38;5098485;28;20031;-84
2022/12/13 00:40:57;;;;;;;24.92;15.18;;;;;;;-1.17;71.23;99435.66;5098928;28;20035;-83
2022/12/13 00:43:22;;;;;;;28.48;16.45;;;;;;;-1.31;70.57;99435.56;5098520;28;20506;-84
2022/12/13 00:45:47;;;;;;;26.45;16.05;;;;;;;-1.49;71.29;99445.91;5098519;28;20046;-84
2022/12/13 00:48:13;;;;;;;27.03;15.03;;;;;;;-1.59;71.23;99432.88;5101057;28;20444;-83
2022/12/13 00:50:39;;;;;;;23.27;16.00;;;;;;;-1.43;71.24;99437.09;5099004;28;20304;-83
2022/12/13 00:53:05;;;;;;;26.98;16.88;;;;;;;-1.40;71.10;99436.72;5098434;28;20105;-83
2022/12/13 00:55:30;;;;;;;27.30;15.98;;;;;;;-1.45;71.09;99433.78;5099609;28;20462;-83
2022/12/13 00:57:55;;;;;;;29.50;15.18;;;;;;;-1.47;71.18;99438.50;5099595;28;20073;-83
2022/12/13 01:00:21;;;;;;;26.15;15.45;;;;;;;-1.56;71.17;99435.13;5098893;28;20056;-83
2022/12/13 01:02:46;;;;;;;30.23;17.58;;;;;;;-1.32;70.66;99425.88;5099574;28;20028;-84
2022/12/13 01:05:12;;;;;;;30.60;16.67;;;;;;;-1.40;70.68;99428.69;5098435;28;20028;-82
2022/12/13 01:07:38;;;;;;;26.58;17.50;;;;;;;-1.35;70.61;99428.94;5098710;28;20058;-82
2022/12/13 01:10:07;;;;;;;28.77;16.95;;;;;;;-1.28;70.53;99430.84;5097489;28;20031;-83
2022/12/13 01:12:33;;;;;;;35.05;17.27;;;;;;;-1.37;70.92;99425.63;5098678;28;20028;-83
2022/12/13 01:14:59;;;;;;;24.35;16.42;;;;;;;-1.42;70.55;99430.72;5097931;28;20043;-83
2022/12/13 01:17:24;;;;;;;29.38;17.70;;;;;;;-1.22;71.02;99430.06;5097499;28;20107;-83
2022/12/13 01:19:49;;;;;;;27.10;17.00;;;;;;;-1.40;70.90;99431.34;5097501;28;20032;-83
2022/12/13 01:22:15;;;;;;;29.98;16.60;;;;;;;-1.32;70.69;99431.22;5098480;28;20036;-83
2022/12/13 01:24:40;;;;;;;29.15;15.68;;;;;;;-1.55;70.87;99434.13;5098770;28;20032;-83
2022/12/13 01:27:06;;;;;;;26.80;15.90;;;;;;;-1.73;71.97;99431.91;5099695;28;20040;-83
2022/12/13 01:29:31;;;;;;;28.10;16.75;;;;;;;-1.59;71.48;99440.88;5099518;28;20521;-83
2022/12/13 01:31:56;;;;;;;27.90;14.45;;;;;;;-1.76;71.55;99441.97;5098709;28;20073;-83
2022/12/13 01:34:23;;;;;;;26.70;15.85;;;;;;;-1.58;71.10;99447.88;5098094;28;20027;-82
2022/12/13 01:36:48;;;;;;;28.20;15.48;;;;;;;-1.61;71.22;99446.44;5099293;28;20321;-82
2022/12/13 01:39:21;;;;;;;29.20;18.08;;;;;;;-1.67;71.28;99449.88;5099113;28;20028;-83
2022/12/13 01:41:50;;;;;;;36.65;18.48;;;;;;;-1.65;71.15;99447.84;5098901;28;20401;-83
2022/12/13 01:44:52;;;;;;;32.75;18.25;;;;;;;-1.74;71.10;99449.78;5099049;28;20043;-82
2022/12/13 01:47:31;;;;;;;30.25;17.08;;;;;;;-1.67;71.55;99455.22;5098406;28;20093;-83
2022/12/13 01:49:58;;;;;;;33.70;18.17;;;;;;;-1.56;71.44;99451.19;5098365;28;20024;-82
2022/12/13 01:52:24;;;;;;;26.15;16.80;;;;;;;-1.74;71.15;99448.97;5098150;28;20028;-84
2022/12/13 01:54:54;;;;;;;30.92;18.05;;;;;;;-1.78;71.43;99444.00;5098148;28;20436;-82
2022/12/13 01:57:21;;;;;;;37.75;16.65;;;;;;;-1.88;71.80;99443.50;5099191;28;20024;-83
2022/12/13 01:59:49;;;;;;;27.63;16.80;;;;;;;-1.79;71.76;99446.88;5096616;28;20085;-84
2022/12/13 02:02:15;;;;;;;31.75;17.83;;;;;;;-1.61;70.61;99453.63;5099338;28;20040;-83
2022/12/13 02:04:53;;;;;;;27.70;17.52;;;;;;;-1.57;70.69;99444.19;5101275;28;20096;-83
2022/12/13 02:07:22;;;;;;;30.27;17.63;;;;;;;-1.71;71.05;99443.25;5102114;28;20032;-84
2022/12/13 02:09:49;;;;;;;29.13;17.85;;;;;;;-1.66;70.78;99443.50;5102812;28;20501;-82
2022/12/13 02:12:14;;;;;;;37.22;19.65;;;;;;;-1.66;70.88;99446.16;5100956;28;20473;-83
2022/12/13 02:14:40;;;;;;;31.35;18.60;;;;;;;-1.77;71.36;99437.63;5101069;28;20055;-83
2022/12/13 02:17:24;;;;;;;31.80;19.00;;;;;;;-1.84;71.23;99450.13;5102611;27;20096;-83
2022/12/13 02:20:26;;;;;;;35.85;20.45;;;;;;;-2.05;71.21;99442.91;5101648;28;20028;-83
2022/12/13 02:23:36;;;;;;;38.03;20.73;;;;;;;-2.02;71.38;99448.72;5100763;28;20041;-84
2022/12/13 02:26:27;;;;;;;32.35;18.90;;;;;;;-1.83;70.84;99440.25;5102567;28;20031;-83
2022/12/13 02:29:10;;;;;;;33.22;19.13;;;;;;;-1.77;71.07;99445.66;5101961;28;20114;-84
2022/12/13 02:31:49;;;;;;;31.52;18.27;;;;;;;-1.74;71.07;99448.97;5101989;28;20027;-83
2022/12/13 02:34:18;;;;;;;29.48;17.80;;;;;;;-2.19;71.35;99453.44;5100061;28;20035;-83
2022/12/13 02:37:15;;;;;;;29.88;19.48;;;;;;;-1.92;71.38;99442.22;5102342;28;20023;-83
2022/12/13 02:39:46;;;;;;;41.85;20.38;;;;;;;-2.00;70.73;99444.00;5094318;28;20608;-83
2022/12/13 02:42:11;;;;;;;40.78;20.30;;;;;;;-1.94;70.81;99444.25;5103509;28;20119;-83
2022/12/13 02:44:42;;;;;;;34.20;20.70;;;;;;;-2.12;71.05;99437.50;5101658;28;20154;-83
2022/12/13 02:47:14;;;;;;;37.00;19.88;;;;;;;-1.97;70.64;99440.09;5101791;28;20408;-82
2022/12/13 02:49:45;;;;;;;37.65;20.33;;;;;;;-2.16;71.34;99436.22;5101150;28;20024;-83
2022/12/13 02:52:14;;;;;;;29.55;19.35;;;;;;;-2.05;71.28;99438.38;5100828;28;20469;-83
2022/12/13 02:54:40;;;;;;;35.63;17.90;;;;;;;-1.94;70.48;99434.41;5100537;28;20031;-83
2022/12/13 02:57:35;;;;;;;27.92;18.33;;;;;;;-2.14;70.71;99434.19;5099887;28;20404;-82
2022/12/13 03:00:06;;;;;;;34.75;20.95;;;;;;;-2.01;70.15;99434.31;5101506;28;20046;-83
2022/12/13 03:02:35;;;;;;;33.40;20.20;;;;;;;-2.16;70.91;99437.06;5102753;28;20031;-83
2022/12/13 03:08:01;;;;;;;33.30;19.80;;;;;;;-2.31;70.91;99431.75;5100540;28;20082;-83
2022/12/13 03:10:42;;;;;;;30.63;17.98;;;;;;;-2.28;70.87;99428.69;5100329;28;20049;-83
2022/12/13 03:16:07;;;;;;;34.42;17.83;;;;;;;-2.35;70.79;99430.47;5099811;28;20439;-84
2022/12/13 03:18:34;;;;;;;32.23;18.17;;;;;;;-2.52;71.17;99428.00;5103044;28;20035;-83
2022/12/13 03:21:02;;;;;;;33.33;18.90;;;;;;;-2.34;70.93;99429.47;5101295;28;20085;-83
2022/12/13 03:23:28;;;;;;;30.40;18.10;;;;;;;-2.51;71.22;99427.00;5099918;28;20248;-83
2022/12/13 03:25:55;;;;;;;26.55;17.58;;;;;;;-2.46;71.16;99429.94;5099548;28;20467;-83
2022/12/13 03:28:22;;;;;;;24.73;17.33;;;;;;;-2.32;70.67;99421.25;5102412;28;20032;-83
2022/12/13 03:30:47;;;;;;;33.53;19.02;;;;;;;-2.41;71.09;99429.38;5099849;28;20111;-84
2022/12/13 03:33:12;;;;;;;39.33;18.85;;;;;;;-2.29;70.91;99432.38;5101131;28;20384;-83
2022/12/13 03:35:40;;;;;;;31.67;18.25;;;;;;;-2.12;70.42;99424.16;5100871;28;20076;-84
2022/12/13 03:38:06;;;;;;;34.03;17.48;;;;;;;-2.03;70.39;99427.50;5099199;28;20063;-84
2022/12/13 03:40:32;;;;;;;31.27;15.63;;;;;;;-2.31;70.12;99415.72;5099926;28;20048;-83
2022/12/13 03:42:58;;;;;;;40.75;19.90;;;;;;;-2.29;69.97;99426.22;5099747;28;20031;-83
2022/12/13 03:45:24;;;;;;;31.98;18.58;;;;;;;-2.52;71.02;99421.88;5098906;28;20456;-83
2022/12/13 03:47:49;;;;;;;32.60;16.92;;;;;;;-2.37;70.63;99411.97;5101022;28;20093;-84
2022/12/13 03:50:14;;;;;;;35.58;19.20;;;;;;;-2.43;70.38;99409.22;5101057;28;20024;-84
2022/12/13 03:52:39;;;;;;;28.00;18.23;;;;;;;-2.54;70.99;99416.69;5099023;28;20034;-83
2022/12/13 03:55:05;;;;;;;34.03;18.17;;;;;;;-2.68;71.40;99413.03;5099427;28;20082;-83
2022/12/13 03:57:30;;;;;;;33.28;17.48;;;;;;;-2.40;70.66;99403.50;5100043;28;20030;-84
2022/12/13 03:59:55;;;;;;;26.90;17.33;;;;;;;-2.66;70.49;99404.81;5100057;28;20100;-82
2022/12/13 04:02:21;;;;;;;34.28;19.73;;;;;;;-2.63;71.40;99404.47;5101257;28;20032;-84
2022/12/13 04:04:46;;;;;;;34.58;18.95;;;;;;;-2.57;70.76;99406.38;5100013;28;20035;-82
2022/12/13 04:07:12;;;;;;;32.35;17.10;;;;;;;-2.47;71.12;99406.94;5101640;28;20070;-82
2022/12/13 04:09:37;;;;;;;33.60;16.95;;;;;;;-2.46;70.57;99405.91;5099647;28;20407;-82
2022/12/13 04:14:46;;;;;;;26.52;16.48;;;;;;;-2.38;69.76;99407.63;5099061;28;20054;-81
2022/12/13 04:17:12;;;;;;;34.50;17.27;;;;;;;-2.18;69.94;99406.19;5099699;28;20138;-83
2022/12/13 04:19:37;;;;;;;28.42;17.10;;;;;;;-2.41;69.71;99404.50;5097968;28;20273;-83
2022/12/13 04:22:02;;;;;;;29.70;16.65;;;;;;;-2.23;69.88;99415.59;5100298;28;20032;-83
2022/12/13 04:24:27;;;;;;;36.70;17.37;;;;;;;-2.20;69.30;99414.41;5098994;28;20702;-82
2022/12/13 04:26:53;;;;;;;33.42;15.73;;;;;;;-2.26;69.82;99410.63;5099539;28;20256;-83
2022/12/13 04:29:18;;;;;;;28.45;17.38;;;;;;;-2.32;70.13;99414.09;5099644;28;20461;-84
2022/12/13 04:31:43;;;;;;;29.13;17.60;;;;;;;-2.29;69.32;99411.03;5100026;28;20023;-82
2022/12/13 04:34:09;;;;;;;28.02;17.27;;;;;;;-2.46;69.85;99411.25;5098895;28;20059;-83
2022/12/13 04:36:34;;;;;;;30.65;18.10;;;;;;;-2.47;70.04;99414.09;5100255;28;20065;-84
2022/12/13 04:39:01;;;;;;;27.95;16.85;;;;;;;-2.43;69.64;99409.22;5099345;28;20030;-83
2022/12/13 04:41:27;;;;;;;33.72;18.60;;;;;;;-2.26;68.98;99415.97;5099937;28;20057;-82
2022/12/13 04:43:53;;;;;;;35.42;17.35;;;;;;;-2.24;69.64;99403.25;5098156;28;20089;-82
2022/12/13 04:46:19;;;;;;;27.45;16.95;;;;;;;-2.12;69.33;99402.78;5098695;28;20051;-83
2022/12/13 04:48:45;;;;;;;27.30;18.23;;;;;;;-2.15;69.06;99403.97;5097519;28;20361;-83
2022/12/13 04:51:10;;;;;;;34.72;19.67;;;;;;;-2.33;69.37;99398.22;5098674;28;20062;-81
2022/12/13 04:53:36;;;;;;;25.70;16.60;;;;;;;-2.23;69.35;99393.41;5098779;28;20028;-83
2022/12/13 04:56:03;;;;;;;35.10;19.40;;;;;;;-2.14;68.89;99394.13;5098444;28;20252;-83
2022/12/13 04:58:29;;;;;;;33.15;16.63;;;;;;;-2.50;68.96;99380.59;5099840;28;20035;-83
2022/12/13 05:00:54;;;;;;;28.38;16.42;;;;;;;-2.42;69.40;99378.84;5098826;28;20032;-83
2022/12/13 05:03:19;;;;;;;28.38;15.30;;;;;;;-2.25;68.66;99382.91;5098264;28;20066;-83
2022/12/13 05:05:44;;;;;;;39.03;18.23;;;;;;;-2.34;68.84;99386.72;5097433;28;20248;-83
2022/12/13 05:08:10;;;;;;;28.53;16.23;;;;;;;-2.64;69.01;99382.28;5098515;28;20039;-83
2022/12/13 05:10:36;;;;;;;29.67;15.45;;;;;;;-2.49;68.48;99379.59;5100389;28;20252;-84
2022/12/13 05:13:02;;;;;;;28.98;15.30;;;;;;;-2.34;68.79;99376.06;5097280;28;20047;-84
2022/12/13 05:15:29;;;;;;;27.10;14.77;;;;;;;-2.27;68.65;99360.06;5096969;28;20644;-83
2022/12/13 05:17:55;;;;;;;24.63;13.25;;;;;;;-2.19;67.83;99362.63;5097980;28;20043;-84
2022/12/13 05:20:20;;;;;;;34.00;18.30;;;;;;;-2.11;68.15;99373.19;5098813;28;20024;-84
2022/12/13 05:22:45;;;;;;;31.63;15.50;;;;;;;-1.96;67.36;99363.44;5098647;28;20036;-84
2022/12/13 05:25:11;;;;;;;29.70;15.45;;;;;;;-1.89;67.09;99367.81;5097282;28;20028;-82
2022/12/13 05:27:36;;;;;;;26.00;14.80;;;;;;;-1.95;67.24;99363.25;5097953;28;20139;-83
2022/12/13 05:30:01;;;;;;;24.17;14.80;;;;;;;-1.77;66.86;99364.66;5099149;28;20019;-83
2022/12/13 05:32:27;;;;;;;23.40;15.73;;;;;;;-1.96;67.20;99366.97;5097276;28;20044;-83
2022/12/13 05:34:52;;;;;;;21.23;13.43;;;;;;;-2.06;67.35;99375.28;5098621;28;20123;-83
2022/12/13 05:37:17;;;;;;;24.25;15.32;;;;;;;-2.07;68.23;99370.94;5100554;28;20275;-82
2022/12/13 05:39:42;;;;;;;26.17;12.27;;;;;;;-2.24;68.16;99373.06;5103476;28;20032;-83
2022/12/13 05:42:08;;;;;;;28.37;15.73;;;;;;;-2.50;68.29;99366.44;5102626;28;20039;-83
2022/12/13 05:44:33;;;;;;;21.00;13.32;;;;;;;-2.28;68.21;99374.47;5103207;28;20275;-82
2022/12/13 05:46:59;;;;;;;24.35;14.85;;;;;;;-2.33;68.04;99371.50;5104078;28;20027;-83
2022/12/13 05:49:24;;;;;;;24.83;14.60;;;;;;;-2.24;68.03;99363.19;5102569;28;20020;-83
2022/12/13 05:51:49;;;;;;;27.20;14.85;;;;;;;-2.40;68.40;99366.94;5102094;28;20185;-82
2022/12/13 05:54:15;;;;;;;24.55;15.23;;;;;;;-2.49;68.47;99363.56;5102536;28;20086;-81
2022/12/13 05:56:40;;;;;;;30.27;17.42;;;;;;;-2.24;67.94;99368.53;5102283;28;20028;-84
2022/12/13 05:59:05;;;;;;;28.35;16.13;;;;;;;-2.17;67.77;99370.44;5103086;28;20020;-84
2022/12/13 06:01:31;;;;;;;28.10;15.45;;;;;;;-2.13;67.71;99369.03;5101451;28;20036;-84
2022/12/13 06:03:56;;;;;;;23.65;13.77;;;;;;;-2.02;67.04;99363.22;5103866;28;20035;-83
2022/12/13 06:06:21;;;;;;;24.80;14.35;;;;;;;-1.90;67.24;99365.34;5103001;28;20051;-84
2022/12/13 06:08:46;;;;;;;29.92;15.45;;;;;;;-2.12;67.86;99368.03;5102246;28;20768;-84
2022/12/13 06:11:12;;;;;;;25.67;14.63;;;;;;;-2.25;67.16;99366.88;5101626;28;20368;-83
2022/12/13 06:13:39;;;;;;;27.70;15.43;;;;;;;-2.24;67.35;99360.50;5103758;28;20063;-83
2022/12/13 06:16:05;;;;;;;26.70;14.88;;;;;;;-2.33;67.89;99367.00;5100933;28;20031;-83
2022/12/13 06:18:32;;;;;;;24.55;14.38;;;;;;;-2.08;67.36;99363.13;5102927;28;20076;-83
2022/12/13 06:21:00;;;;;;;33.83;14.40;;;;;;;-1.90;67.08;99370.69;5101524;28;20032;-83
2022/12/13 06:23:26;;;;;;;22.73;13.98;;;;;;;-1.99;66.71;99375.34;5100988;28;20016;-83
2022/12/13 06:25:51;;;;;;;24.63;16.33;;;;;;;-1.96;67.08;99374.13;5102977;28;20039;-83
2022/12/13 06:28:17;;;;;;;25.23;14.45;;;;;;;-2.19;67.19;99372.47;5101729;27;20513;-84
2022/12/13 06:30:42;;;;;;;23.38;14.13;;;;;;;-2.30;67.40;99368.47;5102078;28;20352;-83
2022/12/13 06:33:07;;;;;;;23.02;13.95;;;;;;;-2.52;67.86;99363.91;5101324;28;20067;-83
2022/12/13 06:35:33;;;;;;;27.95;15.45;;;;;;;-2.37;67.08;99374.56;5102550;28;20477;-83
2022/12/13 06:37:58;;;;;;;26.35;15.40;;;;;;;-2.14;67.18;99368.25;5101672;28;20126;-83
2022/12/13 06:40:24;;;;;;;25.60;13.52;;;;;;;-2.11;66.44;99375.03;5101400;28;20059;-83
2022/12/13 06:42:49;;;;;;;26.73;15.18;;;;;;;-2.19;66.66;99372.47;5101075;28;20081;-84
2022/12/13 06:45:14;;;;;;;25.55;13.93;;;;;;;-2.44;67.19;99367.50;5099345;28;20043;-83
2022/12/13 06:47:39;;;;;;;28.67;15.23;;;;;;;-2.29;66.97;99365.63;5100705;28;20544;-82
2022/12/13 06:50:05;;;;;;;25.25;14.77;;;;;;;-2.42;67.47;99363.63;5101386;28;20032;-82
2022/12/13 06:52:30;;;;;;;26.95;13.82;;;;;;;-2.21;66.46;99366.50;5100287;28;20031;-83
2022/12/13 06:54:56;;;;;;;27.25;14.23;;;;;;;-2.18;66.61;99363.47;5101100;28;20469;-82
2022/12/13 06:57:21;;;;;;;23.67;13.88;;;;;;;-2.10;66.72;99358.00;5102158;28;20036;-82
2022/12/13 06:59:47;;;;;;;30.83;12.82;;;;;;;-2.15;66.83;99365.72;5101575;28;20247;-84
2022/12/13 07:02:12;;;;;;;25.38;13.98;;;;;;;-2.13;66.50;99377.91;5101664;28;20028;-83
2022/12/13 07:04:37;;;;;;;21.38;12.48;;;;;;;-2.12;66.89;99378.72;5099998;28;20097;-82
2022/12/13 07:07:03;;;;;;;21.35;13.27;;;;;;;-2.50;66.61;99371.78;5101446;28;20040;-83
2022/12/13 07:09:32;;;;;;;24.33;13.40;;;;;;;-2.33;66.92;99367.00;5100944;28;20028;-83
2022/12/13 07:11:58;;;;;;;23.55;11.98;;;;;;;-2.36;66.95;99362.88;5100820;28;20575;-82
2022/12/13 07:14:23;;;;;;;24.55;12.38;;;;;;;-2.15;66.36;99363.91;5101674;28;20095;-83
2022/12/13 07:16:48;;;;;;;27.02;13.07;;;;;;;-2.40;66.56;99363.44;5101077;28;20176;-82
2022/12/13 07:19:14;;;;;;;26.95;13.35;;;;;;;-2.45;66.70;99361.34;5101029;28;20039;-83
2022/12/13 07:21:39;;;;;;;22.15;11.55;;;;;;;-2.78;67.33;99367.09;5099917;28;20066;-83
2022/12/13 07:24:05;;;;;;;21.40;13.27;;;;;;;-2.47;67.52;99364.19;5101107;28;20023;-83
2022/12/13 07:26:30;;;;;;;26.95;14.98;;;;;;;-2.62;67.02;99366.06;5100691;28;20688;-84
2022/12/13 07:28:56;;;;;;;28.20;12.82;;;;;;;-2.44;67.47;99370.19;5101976;28;20417;-83
2022/12/13 07:31:23;;;;;;;25.10;11.77;;;;;;;-2.59;66.87;99373.72;5100547;28;20028;-83
2022/12/13 07:33:48;;;;;;;27.17;13.07;;;;;;;-2.65;67.33;99369.97;5100777;28;20461;-82
2022/12/13 07:36:21;;;;;;;24.80;13.48;;;;;;;-2.55;67.01;99369.66;5100715;28;20058;-83
2022/12/13 07:38:51;;;;;;;21.15;14.13;;;;;;;-2.51;66.87;99372.78;5100861;28;20027;-84
2022/12/13 07:41:17;;;;;;;27.52;14.32;;;;;;;-2.48;66.86;99369.72;5099039;28;20038;-84
2022/12/13 07:43:42;;;;;;;23.83;13.40;;;;;;;-2.61;67.96;99373.91;5100853;28;20024;-83
2022/12/13 07:46:10;;;;;;;24.33;13.48;;;;;;;-2.48;66.96;99365.19;5099470;28;20172;-83
2022/12/13 07:48:35;;;;;;;25.70;14.80;;;;;;;-2.34;66.96;99373.38;5100068;28;20016;-84
2022/12/13 07:51:06;;;;;;;23.80;14.52;;;;;;;-2.35;66.67;99374.38;5099766;28;20038;-84
2022/12/13 07:53:32;;;;;;;25.38;13.55;;;;;;;-2.25;67.16;99379.41;5101138;28;20099;-83
2022/12/13 07:56:01;;;;;;;22.65;15.15;;;;;;;-2.23;66.67;99377.38;5099200;28;20088;-83
2022/12/13 07:58:28;;;;;;;25.77;15.55;;;;;;;-2.14;66.83;99380.75;5100100;28;20032;-82
2022/12/13 08:01:02;;;;;;;23.98;13.38;;;;;;;-2.27;66.38;99371.59;5100860;28;20032;-83
2022/12/13 08:03:28;;;;;;;24.08;13.15;;;;;;;-2.26;66.73;99378.56;5099120;28;20523;-83
2022/12/13 08:06:04;;;;;;;29.20;15.82;;;;;;;-2.16;66.06;99388.97;5100026;28;20134;-83
2022/12/13 08:08:30;;;;;;;26.88;13.80;;;;;;;-2.15;66.43;99393.28;5099496;28;20023;-83
2022/12/13 08:10:59;;;;;;;24.50;13.13;;;;;;;-2.19;66.79;99396.50;5099003;28;20080;-83
2022/12/13 08:13:24;;;;;;;25.95;15.55;;;;;;;-2.25;66.91;99392.75;5099480;28;20046;-84
2022/12/13 08:15:50;;;;;;;25.83;14.43;;;;;;;-2.28;66.92;99393.97;5099744;28;20122;-81
2022/12/13 08:18:15;;;;;;;25.38;14.38;;;;;;;-2.19;67.21;99396.50;5099941;28;20492;-82
2022/12/13 08:20:40;;;;;;;30.90;18.13;;;;;;;-2.17;67.36;99394.47;5096949;28;20063;-84
2022/12/13 08:23:06;;;;;;;29.03;18.43;;;;;;;-2.17;66.98;99395.31;5095939;28;20248;-84
2022/12/13 08:25:31;;;;;;;26.15;15.70;;;;;;;-2.27;68.12;99387.63;5098010;28;20626;-85
2022/12/13 08:27:57;;;;;;;33.28;19.30;;;;;;;-2.14;68.30;99386.09;5094957;28;20548;-81
2022/12/13 08:30:22;;;;;;;27.00;16.80;;;;;;;-2.34;68.27;99386.72;5096046;28;20032;-83
2022/12/13 08:32:50;;;;;;;31.08;17.70;;;;;;;-2.19;68.19;99394.69;5099046;28;20028;-81
2022/12/13 08:35:16;;;;;;;42.67;21.17;;;;;;;-2.25;68.24;99390.94;5099173;28;20085;-82
2022/12/13 08:37:41;;;;;;;36.60;20.27;;;;;;;-2.04;67.51;99399.16;5099975;28;20032;-80
2022/12/13 08:40:07;;;;;;;31.85;18.88;;;;;;;-2.04;68.10;99391.97;5095776;28;20492;-84
2022/12/13 08:42:32;;;;;;;33.38;18.83;;;;;;;-1.91;68.07;99396.59;5098088;28;20080;-85
2022/12/13 08:44:58;;;;;;;40.33;21.38;;;;;;;-1.84;68.36;99391.31;5098000;28;20059;-83
2022/12/13 08:47:24;;;;;;;34.17;18.17;;;;;;;-2.04;68.58;99389.28;5099606;28;20028;-83
2022/12/13 08:49:50;;;;;;;34.90;19.90;;;;;;;-2.10;68.78;99387.38;5098655;28;20032;-83
2022/12/13 08:52:15;;;;;;;34.75;19.30;;;;;;;-1.99;69.02;99402.06;5098994;28;20039;-85
2022/12/13 08:54:43;;;;;;;38.72;22.63;;;;;;;-2.05;69.40;99395.63;5098048;28;20028;-84
2022/12/13 08:57:08;;;;;;;31.80;18.73;;;;;;;-1.83;68.64;99398.31;5100153;28;20027;-84
2022/12/13 08:59:33;;;;;;;32.83;16.73;;;;;;;-1.94;69.14;99397.00;5099598;28;20503;-79
2022/12/13 09:01:58;;;;;;;29.55;18.10;;;;;;;-1.86;69.24;99389.84;5099538;28;20286;-83
2022/12/13 09:04:24;;;;;;;28.17;17.13;;;;;;;-1.65;68.69;99391.69;5096195;28;20118;-87
2022/12/13 09:06:49;;;;;;;31.63;19.20;;;;;;;-1.65;68.44;99402.38;5099186;28;20571;-88
2022/12/13 09:09:14;;;;;;;33.17;19.52;;;;;;;-1.65;68.61;99402.38;5099583;28;20264;-85
2022/12/13 09:11:39;;;;;;;30.70;16.83;;;;;;;-1.70;68.13;99402.13;5098843;28;20020;-85
2022/12/13 09:14:05;;;;;;;35.47;19.08;;;;;;;-1.61;68.22;99403.66;5095760;28;20052;-85
2022/12/13 09:16:31;;;;;;;35.08;17.83;;;;;;;-1.38;67.68;99397.22;5100056;28;20043;-87
2022/12/13 09:18:56;;;;;;;29.42;16.98;;;;;;;-1.41;67.66;99395.78;5095378;28;20416;-84
2022/12/13 09:21:21;;;;;;;27.00;15.63;;;;;;;-1.43;67.44;99403.16;5099943;28;20035;-86
2022/12/13 09:23:47;;;;;;;32.95;18.23;;;;;;;-1.41;67.71;99406.47;5098034;28;20282;-86
2022/12/13 09:26:15;;;;;;;27.70;16.83;;;;;;;-1.34;67.60;99395.81;5099671;28;20036;-85
2022/12/13 09:28:40;;;;;;;31.70;16.77;;;;;;;-1.33;66.20;99402.00;5099306;28;20276;-83
2022/12/13 09:31:26;;;;;;;36.17;15.68;;;;;;;-1.26;65.97;99402.03;5098730;28;20035;-85
2022/12/13 09:33:51;;;;;;;26.70;17.80;;;;;;;-1.13;65.67;99402.13;5097474;28;20044;-82
2022/12/13 09:36:20;;;;;;;25.25;16.55;;;;;;;-1.09;66.15;99402.56;5098822;28;20085;-84
2022/12/13 09:38:46;;;;;;;31.67;19.40;;;;;;;-1.40;66.32;99393.91;5099222;28;20373;-84
2022/12/13 09:41:20;;;;;;;36.53;16.95;;;;;;;-1.16;65.72;99401.69;5098859;28;20028;-81
2022/12/13 09:43:51;;;;;;;33.85;17.13;;;;;;;-1.06;65.33;99396.81;5099723;28;20098;-88
2022/12/13 09:46:28;;;;;;;32.40;18.02;;;;;;;-0.98;65.38;99396.66;5098663;28;20036;-82
2022/12/13 09:48:55;;;;;;;28.20;17.77;;;;;;;-1.00;66.04;99400.56;5098340;28;20032;-83
2022/12/13 09:51:20;;;;;;;30.40;17.88;;;;;;;-0.95;66.45;99398.09;5098561;28;20476;-83
2022/12/13 09:53:50;;;;;;;34.85;19.35;;;;;;;-0.90;66.81;99402.88;5096543;28;20047;-85
2022/12/13 09:56:18;;;;;;;35.22;16.88;;;;;;;-0.94;67.07;99400.56;5097610;28;20078;-85
2022/12/13 09:58:48;;;;;;;30.55;16.40;;;;;;;-0.91;66.19;99393.16;5098360;28;20024;-87
2022/12/13 10:01:13;;;;;;;22.55;13.55;;;;;;;-0.81;65.55;99387.47;5096827;28;20085;-85
2022/12/13 10:03:42;;;;;;;30.63;15.55;;;;;;;-0.78;66.12;99381.72;5099685;28;20028;-86
2022/12/13 10:06:22;;;;;;;32.50;16.30;;;;;;;-0.69;64.36;99375.16;5098003;28;20036;-82
2022/12/13 10:08:53;;;;;;;29.08;15.35;;;;;;;-0.71;64.92;99374.53;5099051;28;20473;-80
2022/12/13 10:11:20;;;;;;;27.17;17.10;;;;;;;-0.73;64.92;99381.94;5098211;28;20376;-84
2022/12/13 10:14:08;;;;;;;22.58;15.68;;;;;;;-0.64;63.75;99378.06;5098183;28;20059;-83
2022/12/13 10:16:33;;;;;;;22.42;13.27;;;;;;;-0.56;64.00;99379.75;5098907;28;20168;-85
2022/12/13 10:19:01;;;;;;;27.20;14.57;;;;;;;-0.54;63.63;99376.84;5099547;28;20119;-85
2022/12/13 10:21:38;;;;;;;24.40;14.57;;;;;;;-0.54;63.01;99387.56;5097376;28;20520;-84
2022/12/13 10:24:17;;;;;;;24.25;13.90;;;;;;;-0.45;62.94;99381.03;5101170;28;20376;-85
2022/12/13 10:26:42;;;;;;;28.77;15.20;;;;;;;-0.47;63.84;99372.38;5101182;28;20028;-86
2022/12/13 10:29:08;;;;;;;21.70;11.98;;;;;;;-0.48;63.63;99376.06;5098801;28;20039;-83
2022/12/13 10:31:49;;;;;;;21.30;13.20;;;;;;;-0.48;63.86;99370.69;5102078;28;20030;-84
2022/12/13 10:34:29;;;;;;;31.45;18.88;;;;;;;-0.68;64.30;99367.94;5101439;28;20028;-84
2022/12/13 10:36:54;;;;;;;28.00;16.20;;;;;;;-0.49;64.57;99361.81;5100634;28;20031;-84
2022/12/13 10:39:38;;;;;;;25.95;15.75;;;;;;;-0.45;65.09;99356.91;5101853;28;20036;-85
2022/12/13 10:42:10;;;;;;;28.48;16.50;;;;;;;-0.21;64.66;99354.69;5100271;28;20024;-81
2022/12/13 10:44:36;;;;;;;31.95;16.83;;;;;;;-0.14;64.95;99354.69;5100650;28;20055;-83
2022/12/13 10:47:03;;;;;;;30.83;18.00;;;;;;;-0.13;65.57;99353.66;5100804;28;20500;-83
2022/12/13 10:49:54;;;;;;;31.95;19.23;;;;;;;-0.03;65.26;99350.59;5101665;28;20256;-86
2022/12/13 10:52:22;;;;;;;25.33;14.63;;;;;;;-0.34;65.07;99343.94;5101151;28;20048;-85
2022/12/13 10:54:49;;;;;;;28.83;15.10;;;;;;;-0.18;65.41;99343.56;5100799;28;20458;-85
2022/12/13 10:57:15;;;;;;;32.05;15.38;;;;;;;-0.15;65.18;99337.81;5100842;28;20035;-86
2022/12/13 10:59:48;;;;;;;30.00;16.65;;;;;;;-0.14;65.55;99339.44;5102266;28;20040;-84
2022/12/13 11:02:30;;;;;;;32.95;15.90;;;;;;;-0.10;65.48;99336.38;5101851;28;20028;-85
2022/12/13 11:04:57;;;;;;;29.63;15.68;;;;;;;-0.05;65.84;99336.56;5101539;28;20495;-87
2022/12/13 11:07:32;;;;;;;29.48;16.35;;;;;;;-0.02;65.05;99331.59;5100028;28;20035;-86
2022/12/13 11:10:32;;;;;;;30.50;15.60;;;;;;;-0.05;65.12;99326.66;5100563;28;20062;-85
2022/12/13 11:13:05;;;;;;;37.88;18.38;;;;;;;-0.01;65.88;99327.06;5102178;28;20032;-86
2022/12/13 11:15:35;;;;;;;35.53;17.92;;;;;;;0.02;65.76;99310.56;5100740;28;20050;-86
2022/12/13 11:18:05;;;;;;;25.88;15.80;;;;;;;0.08;64.89;99317.00;5101377;28;20044;-84
2022/12/13 11:20:34;;;;;;;32.95;17.60;;;;;;;0.06;65.10;99311.81;5099482;28;20030;-85
2022/12/13 11:23:05;;;;;;;35.58;18.40;;;;;;;0.05;64.04;99304.81;5101585;28;20549;-85
2022/12/13 11:25:38;;;;;;;26.17;14.35;;;;;;;0.10;64.70;99301.53;5099327;28;20028;-85
2022/12/13 11:28:24;;;;;;;30.52;16.10;;;;;;;-0.05;65.51;99301.72;5101214;28;20036;-84
2022/12/13 11:31:12;;;;;;;28.98;17.10;;;;;;;0.02;65.59;99299.84;5098799;28;20055;-85